Time;durP1;ratioP1;P1;durP2;ratioP2;P2;SDS_P1;SDS_P2;PMS_P1;PMS_P2;Temp;Humidity;BMP_temperature;BMP_pressure;BME280_temperature;BME280_humidity;BME280_pressure;Samples;Min_cycle;Max_cycle;Signal;HPM_P1;HPM_P2
2021/12/02 00:00:46;;;;;;;7.30;1.40;;;7.30;87.50;;;;;;5081123;28;20176;-85
2021/12/02 00:03:12;;;;;;;4.30;1.13;;;7.50;87.00;;;;;;5080191;28;20245;-84
2021/12/02 00:05:38;;;;;;;3.85;1.20;;;7.40;86.60;;;;;;5081023;28;20693;-85
2021/12/02 00:08:04;;;;;;;13.18;1.35;;;7.30;86.40;;;;;;5080891;28;20184;-85
2021/12/02 00:10:31;;;;;;;5.35;1.70;;;7.40;86.40;;;;;;5081093;28;20631;-85
2021/12/02 00:13:01;;;;;;;5.95;1.25;;;7.30;86.30;;;;;;5080505;28;20554;-85
2021/12/02 00:15:44;;;;;;;1.30;1.20;;;7.30;86.30;;;;;;5081326;28;20281;-85
2021/12/02 00:23:29;;;;;;;1.80;1.25;;;7.10;86.20;;;;;;5098716;28;20642;-86
2021/12/02 00:25:59;;;;;;;9.18;1.95;;;7.10;86.30;;;;;;5079934;28;20575;-85
2021/12/02 00:28:26;;;;;;;6.28;2.35;;;7.10;86.40;;;;;;5079734;28;20290;-85
2021/12/02 00:31:00;;;;;;;4.82;1.63;;;7.00;86.50;;;;;;5079859;28;20164;-85
2021/12/02 00:33:30;;;;;;;3.15;2.00;;;7.00;86.40;;;;;;5096634;28;20194;-86
2021/12/02 00:35:57;;;;;;;8.50;1.65;;;7.00;86.60;;;;;;5080275;28;20172;-85
2021/12/02 00:38:24;;;;;;;7.38;2.45;;;7.00;86.60;;;;;;5079891;28;20212;-86
2021/12/02 00:40:51;;;;;;;4.35;1.80;;;7.10;86.80;;;;;;5089546;28;20176;-85
2021/12/02 00:43:17;;;;;;;8.20;1.80;;;7.10;86.70;;;;;;5062616;28;20187;-86
2021/12/02 00:45:44;;;;;;;13.23;2.13;;;7.10;86.80;;;;;;5080499;28;20267;-85
2021/12/02 00:48:11;;;;;;;4.15;2.08;;;7.20;86.90;;;;;;5075981;28;20431;-86
2021/12/02 00:50:39;;;;;;;6.93;2.20;;;7.20;86.90;;;;;;5080203;28;20180;-86
2021/12/02 00:53:07;;;;;;;22.10;2.45;;;7.30;86.90;;;;;;5097957;28;20541;-86
2021/12/02 00:55:38;;;;;;;6.88;2.30;;;7.30;86.60;;;;;;5080198;28;20192;-85
2021/12/02 00:58:05;;;;;;;4.55;1.58;;;7.10;86.30;;;;;;5078077;28;20177;-85
2021/12/02 01:00:31;;;;;;;7.15;1.30;;;7.10;85.10;;;;;;5077659;28;20202;-85
2021/12/02 01:03:02;;;;;;;5.80;1.85;;;7.10;84.70;;;;;;5080084;28;20559;-86
2021/12/02 01:05:30;;;;;;;6.05;1.55;;;7.00;84.40;;;;;;5080342;28;20199;-86
2021/12/02 01:07:58;;;;;;;2.45;1.40;;;7.10;84.50;;;;;;5097419;28;20252;-86
2021/12/02 01:10:24;;;;;;;15.13;1.35;;;7.10;84.50;;;;;;5080286;28;20229;-86
2021/12/02 01:12:50;;;;;;;9.53;1.73;;;7.10;84.50;;;;;;5098262;28;20180;-86
2021/12/02 01:15:16;;;;;;;2.88;1.30;;;7.00;84.50;;;;;;5097940;28;20231;-86
2021/12/02 01:17:42;;;;;;;4.68;1.48;;;7.00;84.70;;;;;;5080788;28;20252;-86
2021/12/02 01:20:09;;;;;;;6.10;1.30;;;7.00;84.90;;;;;;5099081;28;20188;-85
2021/12/02 01:22:38;;;;;;;6.72;1.38;;;7.10;85.10;;;;;;5064070;28;20483;-85
2021/12/02 01:25:08;;;;;;;2.55;1.30;;;7.00;85.00;;;;;;5080499;28;20225;-86
2021/12/02 01:27:35;;;;;;;10.98;1.50;;;7.10;85.00;;;;;;5098744;28;20199;-85
2021/12/02 01:30:04;;;;;;;3.42;1.30;;;7.10;85.10;;;;;;5081241;28;20188;-86
2021/12/02 01:32:33;;;;;;;5.22;1.25;;;7.20;85.10;;;;;;5085277;28;20191;-85
2021/12/02 01:35:02;;;;;;;12.10;1.90;;;7.20;84.80;;;;;;5094149;28;20218;-86
2021/12/02 01:37:28;;;;;;;15.48;1.55;;;7.00;84.10;;;;;;5095219;28;20244;-86
2021/12/02 01:39:56;;;;;;;2.13;1.00;;;7.10;84.10;;;;;;5105422;28;20176;-86
2021/12/02 01:42:23;;;;;;;4.68;1.00;;;7.00;84.00;;;;;;5079758;28;20715;-85
2021/12/02 01:44:53;;;;;;;4.80;1.20;;;7.20;84.20;;;;;;5078444;28;20210;-85
2021/12/02 01:47:22;;;;;;;2.40;0.90;;;7.20;84.30;;;;;;5079391;28;20263;-85
2021/12/02 01:49:51;;;;;;;4.72;1.00;;;6.90;83.30;;;;;;5079237;28;20176;-85
2021/12/02 01:52:25;;;;;;;4.70;1.10;;;6.50;82.40;;;;;;5079476;28;20172;-86
2021/12/02 01:54:54;;;;;;;4.40;0.95;;;6.40;81.80;;;;;;5078843;28;20195;-86
2021/12/02 01:57:29;;;;;;;1.65;0.90;;;6.30;82.40;;;;;;5097560;28;20180;-86
2021/12/02 02:00:19;;;;;;;0.95;0.80;;;6.30;82.40;;;;;;5079052;28;20345;-85
2021/12/02 02:02:45;;;;;;;3.20;0.90;;;6.20;81.70;;;;;;5079232;28;20541;-86
2021/12/02 02:05:13;;;;;;;8.05;0.90;;;6.20;81.90;;;;;;5078397;28;20679;-86
2021/12/02 02:07:59;;;;;;;1.50;0.90;;;6.20;80.90;;;;;;5079112;28;20207;-86
2021/12/02 02:10:26;;;;;;;1.92;0.88;;;6.10;80.60;;;;;;5091088;28;20179;-86
2021/12/02 02:12:58;;;;;;;2.55;1.05;;;6.10;80.30;;;;;;5086261;28;20191;-85
2021/12/02 02:15:25;;;;;;;3.10;1.05;;;6.10;80.00;;;;;;5100144;28;20203;-86
2021/12/02 02:18:01;;;;;;;5.10;1.48;;;6.10;80.10;;;;;;5085579;28;20184;-86
2021/12/02 02:20:39;;;;;;;8.32;1.20;;;6.00;80.00;;;;;;5110533;28;20175;-86
2021/12/02 02:23:09;;;;;;;3.72;1.25;;;6.20;80.70;;;;;;5090555;28;20188;-85
2021/12/02 02:25:35;;;;;;;4.68;0.90;;;6.20;81.10;;;;;;5069703;28;20284;-86
2021/12/02 02:28:01;;;;;;;2.43;1.30;;;6.20;81.40;;;;;;5084172;28;20212;-86
2021/12/02 02:30:26;;;;;;;9.57;1.00;;;6.30;81.50;;;;;;5081993;28;20176;-86
2021/12/02 02:32:52;;;;;;;5.90;1.17;;;6.20;81.70;;;;;;5079378;28;20272;-86
2021/12/02 02:35:18;;;;;;;5.77;1.50;;;6.20;81.90;;;;;;5077690;28;20287;-85
2021/12/02 02:37:44;;;;;;;8.13;1.50;;;6.20;82.20;;;;;;5077621;28;20183;-86
2021/12/02 02:40:11;;;;;;;6.00;1.10;;;6.30;82.50;;;;;;5077646;28;20198;-87
2021/12/02 02:42:38;;;;;;;2.35;1.00;;;6.20;82.60;;;;;;5077369;28;20183;-86
2021/12/02 02:45:04;;;;;;;17.80;1.60;;;6.30;82.80;;;;;;5076601;28;20200;-86
2021/12/02 02:47:31;;;;;;;20.70;1.38;;;6.20;83.00;;;;;;5094582;28;20199;-86
2021/12/02 02:49:57;;;;;;;9.73;1.52;;;6.30;83.30;;;;;;5077902;28;20168;-86
2021/12/02 02:52:23;;;;;;;6.30;1.20;;;6.20;83.40;;;;;;5077105;28;20543;-86
2021/12/02 02:54:50;;;;;;;9.80;1.40;;;6.30;83.30;;;;;;5076103;28;20249;-86
2021/12/02 02:57:20;;;;;;;10.50;2.00;;;6.20;83.20;;;;;;5077520;28;20520;-86
2021/12/02 03:00:09;;;;;;;2.85;1.00;;;6.30;83.40;;;;;;5077753;28;20176;-86
2021/12/02 03:05:24;;;;;;;1.60;1.10;;;6.30;82.80;;;;;;5096365;28;20264;-86
2021/12/02 03:07:55;;;;;;;6.53;0.90;;;6.10;82.40;;;;;;5078182;28;20669;-86
2021/12/02 03:12:59;;;;;;;2.60;0.88;;;5.90;82.20;;;;;;5096174;28;20363;-85
2021/12/02 03:18:09;;;;;;;3.38;0.90;;;5.80;82.20;;;;;;5095863;28;20186;-86
2021/12/02 03:20:34;;;;;;;3.63;0.90;;;6.00;82.50;;;;;;5108805;28;20203;-83
2021/12/02 03:23:00;;;;;;;2.80;0.80;;;6.00;82.20;;;;;;5109757;28;20208;-84
2021/12/02 03:25:26;;;;;;;0.90;0.70;;;5.90;81.80;;;;;;5100272;28;20196;-83
2021/12/02 03:27:52;;;;;;;5.27;0.70;;;5.90;81.80;;;;;;5093037;28;20480;-84
2021/12/02 03:30:18;;;;;;;1.13;1.00;;;5.90;81.40;;;;;;5093838;28;20453;-83
2021/12/02 03:32:44;;;;;;;3.00;0.70;;;5.90;81.40;;;;;;5093406;28;20203;-83
2021/12/02 03:35:09;;;;;;;1.47;0.73;;;6.00;81.80;;;;;;5099254;28;20924;-84
2021/12/02 03:37:35;;;;;;;2.33;1.10;;;5.90;81.80;;;;;;5080076;28;20210;-84
2021/12/02 03:40:02;;;;;;;4.30;1.17;;;6.00;81.80;;;;;;5099351;28;20515;-84
2021/12/02 03:42:29;;;;;;;1.80;0.70;;;6.10;81.80;;;;;;5082790;28;20209;-85
2021/12/02 03:44:54;;;;;;;4.50;0.80;;;6.10;81.90;;;;;;5080835;28;20210;-84
2021/12/02 03:47:20;;;;;;;6.10;1.03;;;6.00;81.70;;;;;;5077641;28;20203;-84
2021/12/02 03:49:46;;;;;;;4.70;1.07;;;6.10;81.90;;;;;;5077527;28;20268;-84
2021/12/02 03:52:12;;;;;;;0.80;0.80;;;6.00;81.80;;;;;;5095705;28;20223;-83
2021/12/02 03:54:37;;;;;;;3.07;0.90;;;6.10;82.10;;;;;;5078063;28;20221;-84
2021/12/02 03:57:03;;;;;;;2.20;0.90;;;6.00;81.90;;;;;;5096334;28;20441;-84
2021/12/02 03:59:29;;;;;;;5.70;1.00;;;6.00;82.00;;;;;;5077361;28;20318;-84
2021/12/02 04:01:55;;;;;;;5.70;1.17;;;5.90;82.10;;;;;;5077825;28;20421;-84
2021/12/02 04:04:20;;;;;;;2.77;1.03;;;5.90;82.70;;;;;;5096242;28;20191;-84
2021/12/02 04:06:46;;;;;;;2.60;0.90;;;5.80;83.00;;;;;;5098300;28;20196;-83
2021/12/02 04:09:22;;;;;;;1.53;0.80;;;5.60;83.20;;;;;;5082205;28;20626;-85
2021/12/02 04:12:06;;;;;;;4.55;0.98;;;5.70;83.70;;;;;;5082505;28;20247;-85
2021/12/02 04:15:22;;;;;;;5.53;1.27;;;5.70;84.10;;;;;;5080057;28;20687;-85
2021/12/02 04:17:39;;;;;;;2.45;1.05;;;5.80;84.30;;;;;;5084586;28;20196;-85
2021/12/02 04:20:06;;;;;;;5.75;1.30;;;5.90;84.50;;;;;;5079802;28;20650;-85
2021/12/02 04:22:31;;;;;;;5.70;1.02;;;5.90;84.60;;;;;;5098743;28;20211;-84
2021/12/02 04:24:57;;;;;;;1.67;1.00;;;6.00;84.60;;;;;;5079901;28;20207;-85
2021/12/02 04:27:26;;;;;;;4.03;1.20;;;6.00;84.80;;;;;;5080754;28;20196;-85
2021/12/02 04:29:51;;;;;;;2.55;1.30;;;5.90;85.20;;;;;;5081198;28;20178;-85
2021/12/02 04:32:17;;;;;;;4.90;1.03;;;5.80;85.50;;;;;;5080421;28;20172;-84
2021/12/02 04:34:43;;;;;;;8.00;1.97;;;5.70;85.50;;;;;;5098878;28;20202;-84
2021/12/02 04:37:08;;;;;;;4.90;0.93;;;5.70;85.40;;;;;;5080200;28;20172;-85
2021/12/02 04:39:34;;;;;;;3.17;1.53;;;5.60;84.00;;;;;;5082693;28;20209;-84
2021/12/02 04:42:00;;;;;;;4.70;1.10;;;5.70;83.30;;;;;;5115338;28;20179;-85
2021/12/02 04:44:25;;;;;;;1.73;1.63;;;5.80;82.60;;;;;;5078575;28;20250;-84
2021/12/02 04:46:53;;;;;;;2.90;1.03;;;5.70;82.40;;;;;;5113523;28;20298;-85
2021/12/02 04:49:19;;;;;;;0.90;0.75;;;5.70;82.10;;;;;;5117444;28;20171;-84
2021/12/02 04:51:45;;;;;;;1.27;0.90;;;5.70;81.80;;;;;;5118931;28;20198;-84
2021/12/02 04:54:10;;;;;;;2.93;0.80;;;5.70;81.30;;;;;;5097220;28;20204;-84
2021/12/02 04:56:37;;;;;;;5.70;1.17;;;5.50;80.40;;;;;;5110237;28;20465;-84
2021/12/02 04:59:03;;;;;;;12.45;1.40;;;5.50;81.10;;;;;;5095870;28;20184;-84
2021/12/02 05:01:29;;;;;;;5.70;1.08;;;5.50;82.40;;;;;;5096344;28;20237;-83
2021/12/02 05:03:54;;;;;;;7.33;1.83;;;5.40;83.00;;;;;;5094348;28;20211;-85
2021/12/02 05:06:20;;;;;;;3.97;1.10;;;5.40;83.00;;;;;;5089053;28;20199;-84
2021/12/02 05:08:46;;;;;;;2.17;1.13;;;5.40;82.90;;;;;;5112741;28;20184;-84
2021/12/02 05:11:11;;;;;;;7.50;1.20;;;5.50;83.30;;;;;;5093080;28;20970;-85
2021/12/02 05:13:37;;;;;;;1.93;1.03;;;5.40;83.10;;;;;;5081457;28;20263;-85
2021/12/02 05:16:03;;;;;;;4.17;1.00;;;5.50;83.20;;;;;;5082194;28;20195;-84
2021/12/02 05:18:29;;;;;;;2.13;0.90;;;5.50;83.20;;;;;;5082447;28;20414;-85
2021/12/02 05:20:57;;;;;;;11.27;1.40;;;5.60;83.20;;;;;;5093649;28;20176;-85
2021/12/02 05:23:22;;;;;;;3.92;1.45;;;5.60;83.20;;;;;;5091578;28;20263;-84
2021/12/02 05:25:48;;;;;;;2.93;1.30;;;5.80;83.20;;;;;;5091141;28;20171;-84
2021/12/02 05:28:18;;;;;;;7.00;1.17;;;5.70;83.20;;;;;;5117701;28;20188;-85
2021/12/02 05:30:47;;;;;;;3.42;1.52;;;5.80;83.00;;;;;;5098928;28;20203;-84
2021/12/02 05:33:13;;;;;;;1.58;0.85;;;5.90;83.00;;;;;;5094382;28;20184;-84
2021/12/02 05:35:39;;;;;;;11.23;1.38;;;5.80;82.70;;;;;;5113930;28;20747;-84
2021/12/02 05:38:05;;;;;;;5.60;1.13;;;5.60;82.30;;;;;;5093549;28;20184;-85
2021/12/02 05:40:31;;;;;;;1.40;0.77;;;5.50;82.40;;;;;;5090703;28;20227;-84
2021/12/02 05:42:57;;;;;;;3.90;1.45;;;5.30;82.90;;;;;;5084560;28;20548;-84
2021/12/02 05:45:22;;;;;;;5.80;1.50;;;5.30;83.70;;;;;;5085242;28;20238;-84
2021/12/02 05:47:48;;;;;;;9.27;1.50;;;5.40;84.50;;;;;;5085587;28;20199;-84
2021/12/02 05:50:14;;;;;;;4.83;1.50;;;5.30;85.30;;;;;;5103218;28;20432;-83
2021/12/02 05:52:39;;;;;;;8.00;2.30;;;5.20;85.50;;;;;;5096774;28;20234;-83
2021/12/02 05:55:05;;;;;;;4.17;1.43;;;5.20;85.90;;;;;;5079369;28;20206;-85
2021/12/02 05:57:33;;;;;;;8.97;3.23;;;5.20;86.10;;;;;;5079835;28;20179;-84
2021/12/02 05:59:59;;;;;;;6.75;1.70;;;5.20;86.40;;;;;;5079703;28;20936;-84
2021/12/02 06:02:27;;;;;;;9.38;1.40;;;5.20;86.50;;;;;;5080410;28;20270;-84
2021/12/02 06:04:53;;;;;;;15.88;1.85;;;5.20;86.60;;;;;;5078616;28;20199;-84
2021/12/02 06:07:20;;;;;;;12.50;2.65;;;5.20;86.60;;;;;;5078800;28;20207;-86
2021/12/02 06:09:47;;;;;;;9.38;2.67;;;5.20;86.70;;;;;;5077579;28;20168;-85
2021/12/02 06:12:13;;;;;;;7.90;2.17;;;5.20;86.30;;;;;;5078617;28;20184;-83
2021/12/02 06:14:39;;;;;;;2.85;1.30;;;5.20;85.10;;;;;;5097449;28;20203;-83
2021/12/02 06:17:05;;;;;;;8.38;1.70;;;5.10;84.90;;;;;;5081529;28;20280;-84
2021/12/02 06:19:31;;;;;;;3.53;1.60;;;5.10;84.80;;;;;;5079026;28;20186;-84
2021/12/02 06:21:57;;;;;;;4.43;2.10;;;5.20;84.90;;;;;;5079119;28;20180;-83
2021/12/02 06:24:29;;;;;;;3.27;1.67;;;5.20;84.90;;;;;;5078810;28;20234;-83
2021/12/02 06:26:56;;;;;;;6.47;2.08;;;5.10;85.10;;;;;;5097122;28;20449;-83
2021/12/02 06:29:22;;;;;;;16.58;1.50;;;5.20;85.30;;;;;;5098068;28;20238;-84
2021/12/02 06:31:52;;;;;;;12.20;2.40;;;5.30;85.20;;;;;;5079569;28;20172;-84
2021/12/02 06:34:18;;;;;;;6.78;1.65;;;5.20;85.10;;;;;;5095404;28;20569;-83
2021/12/02 06:36:43;;;;;;;5.03;1.63;;;5.20;85.00;;;;;;5096967;28;20175;-83
2021/12/02 06:39:09;;;;;;;9.23;1.90;;;5.20;84.90;;;;;;5078238;28;20445;-85
2021/12/02 06:41:35;;;;;;;2.93;1.63;;;5.20;84.90;;;;;;5097564;28;20178;-85
2021/12/02 06:44:00;;;;;;;9.43;2.57;;;5.10;84.40;;;;;;5085919;28;20196;-84
2021/12/02 06:46:29;;;;;;;9.80;2.23;;;5.10;84.10;;;;;;5084461;28;20203;-85
2021/12/02 06:48:54;;;;;;;4.30;1.20;;;5.20;84.00;;;;;;5082343;28;20190;-85
2021/12/02 06:51:20;;;;;;;8.20;2.20;;;5.20;83.40;;;;;;5099595;28;20266;-86
2021/12/02 06:53:48;;;;;;;6.03;2.00;;;5.10;81.70;;;;;;5080354;28;20303;-85
2021/12/02 06:56:15;;;;;;;11.32;1.90;;;5.20;81.60;;;;;;5081889;28;20278;-86
2021/12/02 06:58:40;;;;;;;9.13;2.22;;;5.00;81.70;;;;;;5079272;28;20176;-86
2021/12/02 07:01:06;;;;;;;9.40;1.73;;;4.80;83.00;;;;;;5077178;28;20183;-86
2021/12/02 07:03:32;;;;;;;15.30;1.30;;;4.60;84.10;;;;;;5076378;28;20275;-86
2021/12/02 07:05:57;;;;;;;1.87;1.10;;;4.40;85.10;;;;;;5071303;28;20180;-85
2021/12/02 07:08:24;;;;;;;4.10;1.80;;;4.10;85.70;;;;;;5095180;28;20291;-86
2021/12/02 07:10:50;;;;;;;3.53;1.35;;;3.90;85.90;;;;;;5057890;28;20181;-85
2021/12/02 07:13:16;;;;;;;3.25;1.60;;;3.80;86.70;;;;;;5077969;28;20256;-85
2021/12/02 07:15:53;;;;;;;1.63;0.90;;;3.80;87.30;;;;;;5078583;28;20237;-84
2021/12/02 07:18:19;;;;;;;2.47;0.90;;;3.80;87.80;;;;;;5098089;28;20237;-84
2021/12/02 07:20:47;;;;;;;1.27;1.00;;;3.70;88.30;;;;;;5096599;28;20172;-83
2021/12/02 07:23:18;;;;;;;3.75;1.00;;;3.60;88.70;;;;;;5079991;28;20164;-84
2021/12/02 07:25:45;;;;;;;7.22;1.20;;;3.70;89.00;;;;;;5078933;28;20202;-82
2021/12/02 07:28:12;;;;;;;6.40;1.58;;;3.70;89.20;;;;;;5080039;28;20670;-84
2021/12/02 07:30:39;;;;;;;4.97;1.23;;;3.70;89.30;;;;;;5064267;28;20202;-83
2021/12/02 07:33:06;;;;;;;1.10;1.00;;;3.70;89.30;;;;;;5078943;28;20643;-82
2021/12/02 07:35:32;;;;;;;4.00;1.45;;;3.70;89.30;;;;;;5062349;28;20215;-82
2021/12/02 07:38:01;;;;;;;5.03;1.07;;;3.80;89.30;;;;;;5097604;28;20172;-82
2021/12/02 07:40:29;;;;;;;3.53;1.60;;;3.90;89.40;;;;;;5078024;28;20414;-82
2021/12/02 07:42:55;;;;;;;3.15;1.50;;;4.00;89.20;;;;;;5100124;28;20210;-83
2021/12/02 07:45:24;;;;;;;4.20;1.30;;;4.10;89.30;;;;;;5082203;28;20195;-82
2021/12/02 07:47:50;;;;;;;6.43;1.92;;;4.00;89.10;;;;;;5065481;28;20311;-82
2021/12/02 07:50:17;;;;;;;10.63;2.30;;;4.10;89.10;;;;;;5100299;28;20178;-82
2021/12/02 07:52:50;;;;;;;3.67;1.40;;;4.10;89.00;;;;;;5081306;28;20173;-82
2021/12/02 07:55:16;;;;;;;7.07;1.45;;;4.30;89.10;;;;;;5099644;28;20199;-82
2021/12/02 07:57:44;;;;;;;1.25;1.15;;;4.30;88.80;;;;;;5065874;28;20187;-82
2021/12/02 08:00:13;;;;;;;6.22;1.60;;;4.30;88.60;;;;;;5083499;28;20168;-82
2021/12/02 08:02:43;;;;;;;3.60;1.80;;;4.30;88.20;;;;;;5087068;28;20608;-82
2021/12/02 08:05:09;;;;;;;2.00;0.90;;;4.30;88.10;;;;;;5081853;28;20221;-82
2021/12/02 08:07:38;;;;;;;6.78;1.20;;;4.30;87.90;;;;;;5082859;28;20204;-82
2021/12/02 08:10:06;;;;;;;2.85;1.63;;;4.30;87.70;;;;;;5100385;28;20152;-82
2021/12/02 08:12:34;;;;;;;1.80;1.15;;;4.40;87.40;;;;;;5100364;28;20183;-82
2021/12/02 08:15:02;;;;;;;6.25;1.60;;;4.40;87.10;;;;;;5099725;28;20207;-82
2021/12/02 08:17:27;;;;;;;9.85;1.25;;;4.30;87.00;;;;;;5082957;28;20526;-82
2021/12/02 08:19:53;;;;;;;2.47;1.20;;;4.20;87.00;;;;;;5100682;28;20255;-82
2021/12/02 08:22:19;;;;;;;10.83;1.50;;;4.30;87.20;;;;;;5087521;28;20517;-82
2021/12/02 08:24:45;;;;;;;8.20;1.70;;;4.40;87.10;;;;;;5081914;28;20196;-82
2021/12/02 08:27:10;;;;;;;4.80;1.47;;;4.40;87.00;;;;;;5101696;28;20302;-82
2021/12/02 08:29:36;;;;;;;3.67;1.50;;;4.40;87.00;;;;;;5102180;28;20278;-82
2021/12/02 08:32:02;;;;;;;5.13;1.50;;;4.50;87.00;;;;;;5082702;28;20176;-82
2021/12/02 08:34:28;;;;;;;15.10;1.80;;;4.50;86.70;;;;;;5100123;28;20191;-82
2021/12/02 08:36:55;;;;;;;5.80;1.70;;;4.50;86.70;;;;;;5089566;28;20176;-83
2021/12/02 08:39:29;;;;;;;13.35;2.05;;;4.50;86.60;;;;;;5093706;28;20435;-83
2021/12/02 08:41:56;;;;;;;4.35;1.70;;;4.60;86.60;;;;;;5091893;28;20184;-83
2021/12/02 08:44:25;;;;;;;7.88;1.92;;;4.40;86.50;;;;;;5092339;28;20208;-83
2021/12/02 08:46:52;;;;;;;3.05;1.80;;;4.40;86.70;;;;;;5103158;28;20202;-82
2021/12/02 08:49:19;;;;;;;3.47;1.27;;;4.30;87.00;;;;;;5080546;28;20653;-82
2021/12/02 08:51:45;;;;;;;6.28;1.20;;;4.30;87.20;;;;;;5081107;28;20191;-82
2021/12/02 08:54:12;;;;;;;8.83;1.73;;;4.30;87.40;;;;;;5099300;28;20367;-83
2021/12/02 08:56:39;;;;;;;3.75;1.20;;;4.30;87.60;;;;;;5062253;28;20418;-83
2021/12/02 08:59:04;;;;;;;8.20;1.75;;;4.40;87.80;;;;;;5097009;28;20237;-82
2021/12/02 09:01:32;;;;;;;13.17;2.10;;;4.50;87.90;;;;;;5080490;28;20175;-82
2021/12/02 09:03:58;;;;;;;2.75;1.80;;;4.50;87.90;;;;;;5097355;28;20543;-82
2021/12/02 09:06:24;;;;;;;6.47;1.60;;;4.50;87.70;;;;;;5097746;28;20207;-83
2021/12/02 09:08:54;;;;;;;3.63;1.80;;;4.50;87.70;;;;;;5079981;28;20413;-82
2021/12/02 09:11:20;;;;;;;13.80;2.25;;;4.60;87.50;;;;;;5079559;28;20176;-82
2021/12/02 09:13:46;;;;;;;4.03;1.10;;;4.50;86.90;;;;;;5097970;28;20200;-82
2021/12/02 09:16:13;;;;;;;3.67;1.00;;;4.60;86.40;;;;;;5079432;28;20196;-83
2021/12/02 09:18:39;;;;;;;1.90;0.95;;;4.40;85.80;;;;;;5079730;28;20194;-82
2021/12/02 09:21:05;;;;;;;2.92;1.23;;;4.30;85.80;;;;;;5097832;28;20190;-82
2021/12/02 09:23:31;;;;;;;1.52;1.23;;;4.30;86.10;;;;;;5096379;28;20639;-82
2021/12/02 09:25:58;;;;;;;1.83;1.13;;;4.30;86.50;;;;;;5100114;28;20179;-82
2021/12/02 09:28:25;;;;;;;1.05;0.88;;;4.10;86.60;;;;;;5119455;28;20630;-82
2021/12/02 09:30:51;;;;;;;1.00;0.90;;;4.10;87.00;;;;;;5104814;28;20176;-83
2021/12/02 09:33:17;;;;;;;1.15;0.73;;;4.00;87.20;;;;;;5101636;28;20171;-82
2021/12/02 09:35:44;;;;;;;0.80;0.80;;;4.00;87.40;;;;;;5091462;28;20192;-82
2021/12/02 09:38:10;;;;;;;1.65;1.00;;;3.90;87.30;;;;;;5063652;28;20187;-82
2021/12/02 09:40:37;;;;;;;4.43;0.90;;;3.90;87.60;;;;;;5086873;28;20190;-82
2021/12/02 09:43:03;;;;;;;7.05;1.40;;;3.90;87.70;;;;;;5092885;28;20235;-83
2021/12/02 09:45:29;;;;;;;7.57;1.98;;;3.80;87.80;;;;;;5090823;28;20609;-83
2021/12/02 09:47:55;;;;;;;2.43;1.60;;;3.80;88.10;;;;;;5111461;28;20239;-83
2021/12/02 09:50:32;;;;;;;7.60;2.77;;;3.70;88.40;;;;;;5112372;28;20413;-82
2021/12/02 09:53:06;;;;;;;6.60;1.73;;;3.80;88.70;;;;;;5130959;28;20523;-83
2021/12/02 09:58:19;;;;;;;16.13;2.10;;;3.90;89.10;;;;;;5100339;28;20240;-82
2021/12/02 10:03:34;;;;;;;7.82;3.38;;;4.00;89.10;;;;;;5101753;28;20244;-82
2021/12/02 10:06:04;;;;;;;14.48;2.33;;;4.00;89.00;;;;;;5082483;28;20184;-82
2021/12/02 10:08:36;;;;;;;10.15;2.20;;;4.00;88.90;;;;;;5080280;28;20258;-82
2021/12/02 10:11:07;;;;;;;9.55;2.60;;;4.00;89.00;;;;;;5098337;28;20176;-82
2021/12/02 10:13:50;;;;;;;4.00;2.60;;;4.00;89.00;;;;;;5078943;28;20184;-83
2021/12/02 10:16:30;;;;;;;4.63;2.35;;;4.00;89.00;;;;;;5098483;28;20276;-83
2021/12/02 10:21:41;;;;;;;6.65;2.47;;;4.00;88.80;;;;;;5100818;28;20224;-82
2021/12/02 10:24:14;;;;;;;8.15;2.30;;;4.00;88.80;;;;;;5080867;28;20618;-82
2021/12/02 10:26:49;;;;;;;5.20;2.70;;;4.10;88.90;;;;;;5105053;28;20259;-83
2021/12/02 10:29:30;;;;;;;6.32;3.25;;;4.10;88.80;;;;;;5096806;28;20183;-82
2021/12/02 10:32:13;;;;;;;3.35;2.55;;;4.00;88.50;;;;;;5106438;28;20229;-83
2021/12/02 10:35:01;;;;;;;7.07;3.40;;;3.80;88.30;;;;;;5063321;28;20195;-82
2021/12/02 10:37:33;;;;;;;7.88;3.33;;;3.70;88.10;;;;;;5081077;28;20175;-84
2021/12/02 10:40:12;;;;;;;4.93;4.00;;;3.60;88.20;;;;;;5079958;28;20172;-80
2021/12/02 10:42:43;;;;;;;5.07;3.13;;;3.60;88.30;;;;;;5098233;28;20583;-81
2021/12/02 10:45:41;;;;;;;4.38;2.53;;;3.60;88.30;;;;;;5078692;28;20192;-81
2021/12/02 10:48:07;;;;;;;6.20;3.10;;;3.50;88.50;;;;;;5067450;28;20253;-80
2021/12/02 10:50:39;;;;;;;6.03;3.33;;;3.60;88.70;;;;;;5099464;28;20175;-81
2021/12/02 10:53:05;;;;;;;7.60;2.97;;;3.60;88.60;;;;;;5099674;28;20175;-81
2021/12/02 10:55:32;;;;;;;5.57;3.35;;;3.60;88.70;;;;;;5119659;28;20251;-81
2021/12/02 10:57:59;;;;;;;8.38;3.70;;;3.70;89.00;;;;;;5118749;28;20167;-80
2021/12/02 11:00:31;;;;;;;4.57;3.58;;;3.90;89.10;;;;;;5100858;28;20179;-81
2021/12/02 11:03:06;;;;;;;8.50;3.22;;;4.00;89.00;;;;;;5102697;28;20198;-81
2021/12/02 11:05:33;;;;;;;7.32;3.40;;;4.10;89.00;;;;;;5115477;28;20202;-81
2021/12/02 11:08:05;;;;;;;6.32;3.90;;;4.30;88.90;;;;;;5133436;28;20223;-81
2021/12/02 11:10:39;;;;;;;7.97;4.78;;;4.40;88.80;;;;;;5103640;28;20533;-81
2021/12/02 11:13:06;;;;;;;7.55;4.53;;;4.50;88.60;;;;;;5119526;28;20626;-81
2021/12/02 11:15:34;;;;;;;4.20;2.60;;;4.70;88.50;;;;;;5098519;28;20222;-81
2021/12/02 11:18:03;;;;;;;6.07;2.65;;;4.70;88.20;;;;;;5120265;28;20179;-80
2021/12/02 11:20:39;;;;;;;11.93;2.15;;;4.70;88.00;;;;;;5102700;28;20179;-81
2021/12/02 11:23:09;;;;;;;2.45;1.95;;;4.70;87.70;;;;;;5101962;28;20204;-81
2021/12/02 11:25:53;;;;;;;3.85;2.33;;;4.70;87.60;;;;;;5102237;28;20195;-81
2021/12/02 11:28:23;;;;;;;6.88;2.50;;;4.70;87.50;;;;;;5102732;28;20195;-81
2021/12/02 11:30:49;;;;;;;6.30;2.60;;;4.60;87.40;;;;;;5121456;28;20631;-81
2021/12/02 11:33:21;;;;;;;5.65;2.40;;;4.80;87.40;;;;;;5125073;28;20182;-80
2021/12/02 11:35:51;;;;;;;5.57;2.63;;;4.90;87.50;;;;;;5109065;28;20196;-82
2021/12/02 11:38:24;;;;;;;7.45;2.58;;;4.90;87.40;;;;;;5080036;28;20181;-81
2021/12/02 11:40:57;;;;;;;8.57;2.95;;;5.00;87.40;;;;;;5097232;28;20180;-82
2021/12/02 11:43:26;;;;;;;5.05;2.60;;;5.00;87.30;;;;;;5080707;28;20539;-82
2021/12/02 11:45:54;;;;;;;5.85;3.03;;;5.20;87.40;;;;;;5081649;28;20187;-82
2021/12/02 11:48:21;;;;;;;8.55;3.38;;;5.20;87.30;;;;;;5061515;28;20212;-83
2021/12/02 11:50:50;;;;;;;13.05;3.30;;;5.30;87.40;;;;;;5080683;28;20176;-82
2021/12/02 11:53:21;;;;;;;4.90;2.08;;;5.50;87.30;;;;;;5061112;28;20656;-82
2021/12/02 11:55:50;;;;;;;4.72;2.10;;;5.50;86.90;;;;;;5077890;28;20179;-82
2021/12/02 11:58:16;;;;;;;3.03;2.05;;;5.70;86.50;;;;;;5079819;28;20203;-82
2021/12/02 12:00:44;;;;;;;5.00;2.33;;;5.90;86.20;;;;;;5063412;28;20219;-81
2021/12/02 12:03:13;;;;;;;6.28;2.40;;;6.00;85.90;;;;;;5079678;28;20512;-82
2021/12/02 12:05:39;;;;;;;8.40;1.70;;;5.80;85.00;;;;;;5100347;28;20686;-81
2021/12/02 12:08:05;;;;;;;4.78;2.05;;;6.00;85.00;;;;;;5100363;28;20228;-82
2021/12/02 12:10:38;;;;;;;9.07;2.17;;;6.30;84.60;;;;;;5081938;28;20168;-81
2021/12/02 12:13:18;;;;;;;4.57;1.73;;;6.30;83.70;;;;;;5081401;28;20176;-82
2021/12/02 12:15:57;;;;;;;6.93;2.42;;;6.40;82.80;;;;;;5082685;28;20211;-82
2021/12/02 12:18:28;;;;;;;9.50;1.98;;;6.40;82.20;;;;;;5101363;28;20189;-82
2021/12/02 12:21:06;;;;;;;2.22;1.60;;;6.60;81.90;;;;;;5082119;28;20461;-82
2021/12/02 12:23:40;;;;;;;2.38;1.30;;;6.50;81.20;;;;;;5081468;28;20547;-82
2021/12/02 12:26:30;;;;;;;2.55;1.40;;;6.60;81.00;;;;;;5082572;28;20179;-81
2021/12/02 12:29:05;;;;;;;2.67;1.70;;;6.70;80.90;;;;;;5082581;28;20202;-81
2021/12/02 12:31:35;;;;;;;4.30;1.80;;;6.60;80.50;;;;;;5100805;28;20654;-82
2021/12/02 12:34:02;;;;;;;2.75;1.50;;;6.80;80.90;;;;;;5081468;28;20203;-82
2021/12/02 12:36:40;;;;;;;8.43;2.22;;;6.80;80.80;;;;;;5081930;28;20264;-82
2021/12/02 12:39:24;;;;;;;3.70;1.70;;;6.90;80.60;;;;;;5100360;28;20179;-81
2021/12/02 12:42:12;;;;;;;2.83;2.03;;;6.90;80.50;;;;;;5082265;28;20351;-82
2021/12/02 12:44:53;;;;;;;2.78;2.10;;;6.60;80.30;;;;;;5081037;28;20207;-81
2021/12/02 12:47:44;;;;;;;6.00;2.58;;;6.40;80.90;;;;;;5081845;28;20208;-81
2021/12/02 12:50:34;;;;;;;2.60;1.20;;;6.00;81.70;;;;;;5060966;28;20181;-80
2021/12/02 12:53:05;;;;;;;5.35;1.00;;;5.50;83.00;;;;;;5078683;28;20172;-80
2021/12/02 12:55:34;;;;;;;1.08;0.98;;;5.10;83.40;;;;;;5061383;28;20280;-80
2021/12/02 12:58:18;;;;;;;1.08;0.98;;;4.60;84.30;;;;;;5061109;28;20279;-80
2021/12/02 13:00:48;;;;;;;1.60;1.50;;;4.50;85.80;;;;;;5065475;28;20180;-80
2021/12/02 13:03:30;;;;;;;1.98;1.75;;;4.50;86.40;;;;;;5060333;28;20169;-79
2021/12/02 13:06:17;;;;;;;1.48;1.38;;;4.60;86.90;;;;;;5061048;28;20172;-80
2021/12/02 13:08:47;;;;;;;3.42;1.45;;;4.70;87.40;;;;;;5061283;28;20591;-81
2021/12/02 13:11:17;;;;;;;2.67;1.75;;;4.70;87.70;;;;;;5069808;28;20176;-80
2021/12/02 13:13:45;;;;;;;2.28;1.98;;;4.60;87.70;;;;;;5100333;28;20191;-81
2021/12/02 13:16:35;;;;;;;1.45;1.20;;;4.70;88.00;;;;;;5101467;28;20198;-82
2021/12/02 13:19:15;;;;;;;1.90;1.00;;;4.70;88.20;;;;;;5100551;28;20176;-81
2021/12/02 13:21:42;;;;;;;2.38;1.50;;;4.60;87.80;;;;;;5116826;28;20236;-80
2021/12/02 13:24:11;;;;;;;3.03;1.17;;;4.60;87.90;;;;;;5098360;28;20192;-81
2021/12/02 13:26:59;;;;;;;3.97;1.30;;;4.60;88.00;;;;;;5100064;28;20238;-82